sensor_id;sensor_type;location;lat;lon;timestamp;temperature;humidity
66710;DHT22;53624;0.000;0.000;2022-12-29T00:00:07;16.40;93.10
66710;DHT22;53624;0.000;0.000;2022-12-29T00:02:41;16.30;93.10
66710;DHT22;53624;0.000;0.000;2022-12-29T00:05:08;16.30;93.20
66710;DHT22;53624;0.000;0.000;2022-12-29T00:07:36;16.30;93.30
66710;DHT22;53624;0.000;0.000;2022-12-29T00:10:04;16.20;93.30
66710;DHT22;53624;0.000;0.000;2022-12-29T00:12:31;16.20;93.40
66710;DHT22;53624;0.000;0.000;2022-12-29T00:15:14;16.10;93.40
66710;DHT22;53624;0.000;0.000;2022-12-29T00:17:59;16.10;93.40
66710;DHT22;53624;0.000;0.000;2022-12-29T00:20:26;16.00;93.40
66710;DHT22;53624;0.000;0.000;2022-12-29T00:23:08;16.00;93.50
66710;DHT22;53624;0.000;0.000;2022-12-29T00:25:53;15.90;93.50
66710;DHT22;53624;0.000;0.000;2022-12-29T00:28:38;15.90;93.60
66710;DHT22;53624;0.000;0.000;2022-12-29T00:31:24;15.80;93.60
66710;DHT22;53624;0.000;0.000;2022-12-29T00:34:10;15.80;93.70
66710;DHT22;53624;0.000;0.000;2022-12-29T00:36:55;15.70;93.80
66710;DHT22;53624;0.000;0.000;2022-12-29T00:39:23;15.70;93.80
66710;DHT22;53624;0.000;0.000;2022-12-29T00:42:08;15.60;93.80
66710;DHT22;53624;0.000;0.000;2022-12-29T00:44:58;15.60;93.90
66710;DHT22;53624;0.000;0.000;2022-12-29T00:47:27;15.60;93.90
66710;DHT22;53624;0.000;0.000;2022-12-29T00:49:55;15.50;93.90
66710;DHT22;53624;0.000;0.000;2022-12-29T00:52:21;15.50;94.00
66710;DHT22;53624;0.000;0.000;2022-12-29T00:54:49;15.50;94.00
66710;DHT22;53624;0.000;0.000;2022-12-29T00:57:16;15.40;94.00
66710;DHT22;53624;0.000;0.000;2022-12-29T00:59:44;15.40;94.00
66710;DHT22;53624;0.000;0.000;2022-12-29T01:02:11;15.40;94.00
66710;DHT22;53624;0.000;0.000;2022-12-29T01:04:40;15.30;94.00
66710;DHT22;53624;0.000;0.000;2022-12-29T01:07:08;15.30;94.00
66710;DHT22;53624;0.000;0.000;2022-12-29T01:09:37;15.30;94.10
66710;DHT22;53624;0.000;0.000;2022-12-29T01:12:21;15.20;94.10
66710;DHT22;53624;0.000;0.000;2022-12-29T01:15:03;15.20;94.10
66710;DHT22;53624;0.000;0.000;2022-12-29T01:17:30;15.10;94.10
66710;DHT22;53624;0.000;0.000;2022-12-29T01:19:59;15.10;94.10
66710;DHT22;53624;0.000;0.000;2022-12-29T01:22:27;15.10;94.20
66710;DHT22;53624;0.000;0.000;2022-12-29T01:24:55;15.00;94.20
66710;DHT22;53624;0.000;0.000;2022-12-29T01:27:22;15.00;94.20
66710;DHT22;53624;0.000;0.000;2022-12-29T01:29:50;15.00;94.30
66710;DHT22;53624;0.000;0.000;2022-12-29T01:32:17;15.00;94.30
66710;DHT22;53624;0.000;0.000;2022-12-29T01:34:45;14.90;94.30
66710;DHT22;53624;0.000;0.000;2022-12-29T01:37:14;14.90;94.30
66710;DHT22;53624;0.000;0.000;2022-12-29T01:39:41;14.90;94.40
66710;DHT22;53624;0.000;0.000;2022-12-29T01:42:11;14.90;94.40
66710;DHT22;53624;0.000;0.000;2022-12-29T01:44:49;14.80;94.40
66710;DHT22;53624;0.000;0.000;2022-12-29T01:47:21;14.80;94.50
66710;DHT22;53624;0.000;0.000;2022-12-29T01:49:50;14.80;94.50
66710;DHT22;53624;0.000;0.000;2022-12-29T01:52:19;14.80;94.50
66710;DHT22;53624;0.000;0.000;2022-12-29T01:54:48;14.70;94.50
66710;DHT22;53624;0.000;0.000;2022-12-29T01:57:16;14.70;94.60
66710;DHT22;53624;0.000;0.000;2022-12-29T01:59:46;14.70;94.60
66710;DHT22;53624;0.000;0.000;2022-12-29T02:02:16;14.70;94.60
66710;DHT22;53624;0.000;0.000;2022-12-29T02:04:43;14.60;94.60
66710;DHT22;53624;0.000;0.000;2022-12-29T02:07:13;14.60;94.70
66710;DHT22;53624;0.000;0.000;2022-12-29T02:09:45;14.60;94.70
66710;DHT22;53624;0.000;0.000;2022-12-29T02:12:15;14.60;94.70
66710;DHT22;53624;0.000;0.000;2022-12-29T02:14:43;14.60;94.70
66710;DHT22;53624;0.000;0.000;2022-12-29T02:17:13;14.60;94.80
66710;DHT22;53624;0.000;0.000;2022-12-29T02:22:32;14.50;94.80
66710;DHT22;53624;0.000;0.000;2022-12-29T02:25:11;14.50;94.80
66710;DHT22;53624;0.000;0.000;2022-12-29T02:27:43;14.50;94.90
66710;DHT22;53624;0.000;0.000;2022-12-29T02:30:15;14.40;94.80
66710;DHT22;53624;0.000;0.000;2022-12-29T02:32:52;14.40;94.80
66710;DHT22;53624;0.000;0.000;2022-12-29T02:35:23;14.40;94.80
66710;DHT22;53624;0.000;0.000;2022-12-29T02:37:56;14.40;94.90
66710;DHT22;53624;0.000;0.000;2022-12-29T02:40:28;14.40;94.90
66710;DHT22;53624;0.000;0.000;2022-12-29T02:42:59;14.30;94.90
66710;DHT22;53624;0.000;0.000;2022-12-29T02:45:29;14.30;94.90
66710;DHT22;53624;0.000;0.000;2022-12-29T02:48:01;14.30;94.90
66710;DHT22;53624;0.000;0.000;2022-12-29T02:50:32;14.30;95.00
66710;DHT22;53624;0.000;0.000;2022-12-29T02:53:01;14.30;95.00
66710;DHT22;53624;0.000;0.000;2022-12-29T02:55:28;14.30;95.00
66710;DHT22;53624;0.000;0.000;2022-12-29T02:58:09;14.30;95.10
66710;DHT22;53624;0.000;0.000;2022-12-29T03:00:41;14.20;95.00
66710;DHT22;53624;0.000;0.000;2022-12-29T03:03:17;14.20;95.10
66710;DHT22;53624;0.000;0.000;2022-12-29T03:05:57;14.20;95.10
66710;DHT22;53624;0.000;0.000;2022-12-29T03:08:28;14.20;95.10
66710;DHT22;53624;0.000;0.000;2022-12-29T03:10:59;14.20;95.10
66710;DHT22;53624;0.000;0.000;2022-12-29T03:13:29;14.20;95.10
66710;DHT22;53624;0.000;0.000;2022-12-29T03:16:20;14.10;95.10
66710;DHT22;53624;0.000;0.000;2022-12-29T03:18:51;14.10;95.10
66710;DHT22;53624;0.000;0.000;2022-12-29T03:21:22;14.10;95.20
66710;DHT22;53624;0.000;0.000;2022-12-29T03:24:16;14.10;95.20
66710;DHT22;53624;0.000;0.000;2022-12-29T03:26:46;14.10;95.20
66710;DHT22;53624;0.000;0.000;2022-12-29T03:29:15;14.10;95.20
66710;DHT22;53624;0.000;0.000;2022-12-29T03:31:45;14.10;95.20
66710;DHT22;53624;0.000;0.000;2022-12-29T03:34:15;14.10;95.20
66710;DHT22;53624;0.000;0.000;2022-12-29T03:36:46;14.00;95.20
66710;DHT22;53624;0.000;0.000;2022-12-29T03:39:15;14.00;95.20
66710;DHT22;53624;0.000;0.000;2022-12-29T03:41:45;14.00;95.20
66710;DHT22;53624;0.000;0.000;2022-12-29T03:44:13;14.00;95.30
66710;DHT22;53624;0.000;0.000;2022-12-29T03:46:40;14.00;95.30
66710;DHT22;53624;0.000;0.000;2022-12-29T03:49:08;14.00;95.30
66710;DHT22;53624;0.000;0.000;2022-12-29T03:51:37;14.00;95.40
66710;DHT22;53624;0.000;0.000;2022-12-29T03:54:05;13.90;95.30
66710;DHT22;53624;0.000;0.000;2022-12-29T03:56:33;13.90;95.40
66710;DHT22;53624;0.000;0.000;2022-12-29T03:59:01;13.90;95.40
66710;DHT22;53624;0.000;0.000;2022-12-29T04:01:37;13.90;95.40
66710;DHT22;53624;0.000;0.000;2022-12-29T04:04:05;13.90;95.40
66710;DHT22;53624;0.000;0.000;2022-12-29T04:06:33;13.90;95.50
66710;DHT22;53624;0.000;0.000;2022-12-29T04:09:05;13.90;95.80
66710;DHT22;53624;0.000;0.000;2022-12-29T04:11:38;13.80;95.40
66710;DHT22;53624;0.000;0.000;2022-12-29T04:14:06;13.80;95.40
66710;DHT22;53624;0.000;0.000;2022-12-29T04:16:33;13.80;95.50
66710;DHT22;53624;0.000;0.000;2022-12-29T04:19:03;13.80;95.50
66710;DHT22;53624;0.000;0.000;2022-12-29T04:21:32;13.80;95.50
66710;DHT22;53624;0.000;0.000;2022-12-29T04:24:00;13.80;95.50
66710;DHT22;53624;0.000;0.000;2022-12-29T04:26:29;13.80;95.50
66710;DHT22;53624;0.000;0.000;2022-12-29T04:29:07;13.80;95.50
66710;DHT22;53624;0.000;0.000;2022-12-29T04:31:43;13.70;95.50
66710;DHT22;53624;0.000;0.000;2022-12-29T04:34:11;13.70;95.50
66710;DHT22;53624;0.000;0.000;2022-12-29T04:36:38;13.70;95.60
66710;DHT22;53624;0.000;0.000;2022-12-29T04:39:06;13.70;95.60
66710;DHT22;53624;0.000;0.000;2022-12-29T04:41:36;13.70;95.60
66710;DHT22;53624;0.000;0.000;2022-12-29T04:44:06;13.70;95.60
66710;DHT22;53624;0.000;0.000;2022-12-29T04:46:46;13.70;95.60
66710;DHT22;53624;0.000;0.000;2022-12-29T04:49:28;13.70;95.60
66710;DHT22;53624;0.000;0.000;2022-12-29T04:52:16;13.60;95.60
66710;DHT22;53624;0.000;0.000;2022-12-29T04:54:44;13.60;95.60
66710;DHT22;53624;0.000;0.000;2022-12-29T04:57:18;13.60;95.70
66710;DHT22;53624;0.000;0.000;2022-12-29T04:59:50;13.60;95.70
66710;DHT22;53624;0.000;0.000;2022-12-29T05:02:18;13.60;95.70
66710;DHT22;53624;0.000;0.000;2022-12-29T05:04:47;13.60;95.70
66710;DHT22;53624;0.000;0.000;2022-12-29T05:07:15;13.60;95.70
66710;DHT22;53624;0.000;0.000;2022-12-29T05:09:44;13.60;95.70
66710;DHT22;53624;0.000;0.000;2022-12-29T05:12:11;13.60;95.70
66710;DHT22;53624;0.000;0.000;2022-12-29T05:14:48;13.60;95.80
66710;DHT22;53624;0.000;0.000;2022-12-29T05:17:16;13.50;95.80
66710;DHT22;53624;0.000;0.000;2022-12-29T05:19:44;13.50;95.80
66710;DHT22;53624;0.000;0.000;2022-12-29T05:22:11;13.50;95.80
66710;DHT22;53624;0.000;0.000;2022-12-29T05:24:39;13.50;95.80
66710;DHT22;53624;0.000;0.000;2022-12-29T05:27:06;13.50;95.90
66710;DHT22;53624;0.000;0.000;2022-12-29T05:29:49;13.50;95.90
66710;DHT22;53624;0.000;0.000;2022-12-29T05:32:17;13.50;95.90
66710;DHT22;53624;0.000;0.000;2022-12-29T05:34:44;13.40;95.90
66710;DHT22;53624;0.000;0.000;2022-12-29T05:37:12;13.40;95.90
66710;DHT22;53624;0.000;0.000;2022-12-29T05:39:41;13.40;96.00
66710;DHT22;53624;0.000;0.000;2022-12-29T05:42:09;13.40;96.00
66710;DHT22;53624;0.000;0.000;2022-12-29T05:44:59;13.40;96.00
66710;DHT22;53624;0.000;0.000;2022-12-29T05:47:55;13.40;96.00
66710;DHT22;53624;0.000;0.000;2022-12-29T05:50:34;13.40;96.00
66710;DHT22;53624;0.000;0.000;2022-12-29T05:53:11;13.40;96.00
66710;DHT22;53624;0.000;0.000;2022-12-29T05:55:39;13.40;96.10
66710;DHT22;53624;0.000;0.000;2022-12-29T05:58:06;13.40;96.10
66710;DHT22;53624;0.000;0.000;2022-12-29T06:00:35;13.30;96.10
66710;DHT22;53624;0.000;0.000;2022-12-29T06:03:03;13.40;96.10
66710;DHT22;53624;0.000;0.000;2022-12-29T06:05:31;13.40;96.10
66710;DHT22;53624;0.000;0.000;2022-12-29T06:07:58;13.30;96.10
66710;DHT22;53624;0.000;0.000;2022-12-29T06:10:27;13.30;96.10
66710;DHT22;53624;0.000;0.000;2022-12-29T06:13:02;13.30;96.10
66710;DHT22;53624;0.000;0.000;2022-12-29T06:15:35;13.30;96.00
66710;DHT22;53624;0.000;0.000;2022-12-29T06:18:05;13.30;96.00
66710;DHT22;53624;0.000;0.000;2022-12-29T06:20:34;13.30;96.00
66710;DHT22;53624;0.000;0.000;2022-12-29T06:23:04;13.30;96.00
66710;DHT22;53624;0.000;0.000;2022-12-29T06:25:31;13.30;96.00
66710;DHT22;53624;0.000;0.000;2022-12-29T06:28:00;13.30;96.00
66710;DHT22;53624;0.000;0.000;2022-12-29T06:30:27;13.20;96.00
66710;DHT22;53624;0.000;0.000;2022-12-29T06:32:57;13.20;96.00
66710;DHT22;53624;0.000;0.000;2022-12-29T06:35:24;13.20;96.00
66710;DHT22;53624;0.000;0.000;2022-12-29T06:37:52;13.20;96.10
66710;DHT22;53624;0.000;0.000;2022-12-29T06:40:20;13.30;96.10
66710;DHT22;53624;0.000;0.000;2022-12-29T06:43:05;13.30;96.00
66710;DHT22;53624;0.000;0.000;2022-12-29T06:45:39;13.20;96.00
66710;DHT22;53624;0.000;0.000;2022-12-29T06:48:08;13.20;96.00
66710;DHT22;53624;0.000;0.000;2022-12-29T06:50:36;13.20;96.10
66710;DHT22;53624;0.000;0.000;2022-12-29T06:53:03;13.20;96.40
66710;DHT22;53624;0.000;0.000;2022-12-29T06:55:31;13.20;96.10
66710;DHT22;53624;0.000;0.000;2022-12-29T06:57:58;13.10;96.10
66710;DHT22;53624;0.000;0.000;2022-12-29T07:00:27;13.10;96.10
66710;DHT22;53624;0.000;0.000;2022-12-29T07:02:54;13.10;96.10
66710;DHT22;53624;0.000;0.000;2022-12-29T07:05:23;13.10;96.00
66710;DHT22;53624;0.000;0.000;2022-12-29T07:07:53;13.10;96.10
66710;DHT22;53624;0.000;0.000;2022-12-29T07:10:21;13.10;96.10
66710;DHT22;53624;0.000;0.000;2022-12-29T07:12:48;13.10;96.10
66710;DHT22;53624;0.000;0.000;2022-12-29T07:15:16;13.10;96.10
66710;DHT22;53624;0.000;0.000;2022-12-29T07:17:43;13.10;96.20
66710;DHT22;53624;0.000;0.000;2022-12-29T07:20:11;13.10;96.20
66710;DHT22;53624;0.000;0.000;2022-12-29T07:22:40;13.10;96.20
66710;DHT22;53624;0.000;0.000;2022-12-29T07:25:07;13.00;96.20
66710;DHT22;53624;0.000;0.000;2022-12-29T07:27:35;13.10;96.20
66710;DHT22;53624;0.000;0.000;2022-12-29T07:30:03;13.10;96.30
66710;DHT22;53624;0.000;0.000;2022-12-29T07:32:32;13.00;96.20
66710;DHT22;53624;0.000;0.000;2022-12-29T07:34:59;13.00;96.20
66710;DHT22;53624;0.000;0.000;2022-12-29T07:37:27;13.00;96.30
66710;DHT22;53624;0.000;0.000;2022-12-29T07:39:55;13.00;96.20
66710;DHT22;53624;0.000;0.000;2022-12-29T07:42:23;13.00;96.30
66710;DHT22;53624;0.000;0.000;2022-12-29T07:44:52;13.00;96.30
66710;DHT22;53624;0.000;0.000;2022-12-29T07:47:47;13.00;96.30
66710;DHT22;53624;0.000;0.000;2022-12-29T07:50:14;13.00;96.20
66710;DHT22;53624;0.000;0.000;2022-12-29T07:52:42;13.00;96.20
66710;DHT22;53624;0.000;0.000;2022-12-29T07:55:12;13.00;96.20
66710;DHT22;53624;0.000;0.000;2022-12-29T07:57:39;13.00;96.20
66710;DHT22;53624;0.000;0.000;2022-12-29T08:00:07;13.00;96.20
66710;DHT22;53624;0.000;0.000;2022-12-29T08:02:37;13.00;96.20
66710;DHT22;53624;0.000;0.000;2022-12-29T08:05:05;13.00;96.10
66710;DHT22;53624;0.000;0.000;2022-12-29T08:07:33;13.00;96.10
66710;DHT22;53624;0.000;0.000;2022-12-29T08:10:01;13.00;96.10
66710;DHT22;53624;0.000;0.000;2022-12-29T08:12:30;13.00;96.10
66710;DHT22;53624;0.000;0.000;2022-12-29T08:14:57;13.10;96.10
66710;DHT22;53624;0.000;0.000;2022-12-29T08:17:25;13.10;96.10
66710;DHT22;53624;0.000;0.000;2022-12-29T08:19:52;13.10;96.00
66710;DHT22;53624;0.000;0.000;2022-12-29T08:22:20;13.10;96.00
66710;DHT22;53624;0.000;0.000;2022-12-29T08:24:47;13.10;96.00
66710;DHT22;53624;0.000;0.000;2022-12-29T08:27:15;13.10;95.90
66710;DHT22;53624;0.000;0.000;2022-12-29T08:29:44;13.20;95.90
66710;DHT22;53624;0.000;0.000;2022-12-29T08:32:12;13.20;95.90
66710;DHT22;53624;0.000;0.000;2022-12-29T08:34:39;13.20;95.90
66710;DHT22;53624;0.000;0.000;2022-12-29T08:37:07;13.20;95.90
66710;DHT22;53624;0.000;0.000;2022-12-29T08:39:34;13.20;95.90
66710;DHT22;53624;0.000;0.000;2022-12-29T08:42:02;13.30;95.90
66710;DHT22;53624;0.000;0.000;2022-12-29T08:44:29;12.90;94.40
66710;DHT22;53624;0.000;0.000;2022-12-29T08:46:58;12.30;94.50
66710;DHT22;53624;0.000;0.000;2022-12-29T08:49:26;12.00;95.20
66710;DHT22;53624;0.000;0.000;2022-12-29T08:51:53;11.90;95.50
66710;DHT22;53624;0.000;0.000;2022-12-29T08:54:21;11.80;95.70
66710;DHT22;53624;0.000;0.000;2022-12-29T08:56:48;11.60;95.90
66710;DHT22;53624;0.000;0.000;2022-12-29T08:59:17;11.50;96.00
66710;DHT22;53624;0.000;0.000;2022-12-29T09:01:47;11.40;96.30
66710;DHT22;53624;0.000;0.000;2022-12-29T09:04:16;11.60;96.40
66710;DHT22;53624;0.000;0.000;2022-12-29T09:06:43;12.10;96.10
66710;DHT22;53624;0.000;0.000;2022-12-29T09:09:11;12.40;96.00
66710;DHT22;53624;0.000;0.000;2022-12-29T09:11:39;12.60;95.70
66710;DHT22;53624;0.000;0.000;2022-12-29T09:14:06;12.80;95.70
66710;DHT22;53624;0.000;0.000;2022-12-29T09:16:34;13.20;95.60
66710;DHT22;53624;0.000;0.000;2022-12-29T09:19:02;13.60;95.40
66710;DHT22;53624;0.000;0.000;2022-12-29T09:21:31;14.30;96.00
66710;DHT22;53624;0.000;0.000;2022-12-29T09:23:59;14.90;95.70
66710;DHT22;53624;0.000;0.000;2022-12-29T09:26:26;15.60;95.90
66710;DHT22;53624;0.000;0.000;2022-12-29T09:28:54;16.30;95.50
66710;DHT22;53624;0.000;0.000;2022-12-29T09:31:22;16.80;94.90
66710;DHT22;53624;0.000;0.000;2022-12-29T09:33:51;17.20;94.50
66710;DHT22;53624;0.000;0.000;2022-12-29T09:36:18;17.70;93.90
66710;DHT22;53624;0.000;0.000;2022-12-29T09:38:47;18.10;93.50
66710;DHT22;53624;0.000;0.000;2022-12-29T09:41:20;18.40;93.10
66710;DHT22;53624;0.000;0.000;2022-12-29T09:43:57;18.60;92.80
66710;DHT22;53624;0.000;0.000;2022-12-29T09:46:26;18.60;92.60
66710;DHT22;53624;0.000;0.000;2022-12-29T09:49:04;18.70;92.50
66710;DHT22;53624;0.000;0.000;2022-12-29T09:51:34;18.70;92.20
66710;DHT22;53624;0.000;0.000;2022-12-29T09:54:10;18.40;91.50
66710;DHT22;53624;0.000;0.000;2022-12-29T09:56:44;18.70;90.90
66710;DHT22;53624;0.000;0.000;2022-12-29T09:59:13;19.20;90.50
66710;DHT22;53624;0.000;0.000;2022-12-29T10:01:43;19.70;90.00
66710;DHT22;53624;0.000;0.000;2022-12-29T10:04:12;20.10;89.20
66710;DHT22;53624;0.000;0.000;2022-12-29T10:06:40;20.50;88.10
66710;DHT22;53624;0.000;0.000;2022-12-29T10:09:12;20.90;87.20
66710;DHT22;53624;0.000;0.000;2022-12-29T10:11:56;21.30;86.40
66710;DHT22;53624;0.000;0.000;2022-12-29T10:14:29;21.70;85.70
66710;DHT22;53624;0.000;0.000;2022-12-29T10:17:01;22.10;84.90
66710;DHT22;53624;0.000;0.000;2022-12-29T10:19:35;22.40;84.20
66710;DHT22;53624;0.000;0.000;2022-12-29T10:22:09;22.70;83.80
66710;DHT22;53624;0.000;0.000;2022-12-29T10:24:41;23.00;84.00
66710;DHT22;53624;0.000;0.000;2022-12-29T10:27:10;23.20;83.00
66710;DHT22;53624;0.000;0.000;2022-12-29T10:29:40;23.30;82.90
66710;DHT22;53624;0.000;0.000;2022-12-29T10:32:09;23.70;82.60
66710;DHT22;53624;0.000;0.000;2022-12-29T10:34:41;23.60;83.20
66710;DHT22;53624;0.000;0.000;2022-12-29T10:37:11;23.40;83.60
66710;DHT22;53624;0.000;0.000;2022-12-29T10:39:43;23.20;83.80
66710;DHT22;53624;0.000;0.000;2022-12-29T10:42:13;22.90;84.00
66710;DHT22;53624;0.000;0.000;2022-12-29T10:44:42;22.60;84.60
66710;DHT22;53624;0.000;0.000;2022-12-29T10:47:11;22.30;85.80
66710;DHT22;53624;0.000;0.000;2022-12-29T10:49:42;22.50;85.60
66710;DHT22;53624;0.000;0.000;2022-12-29T10:52:10;22.40;85.60
66710;DHT22;53624;0.000;0.000;2022-12-29T10:54:39;22.30;85.80
66710;DHT22;53624;0.000;0.000;2022-12-29T10:57:11;22.20;85.30
66710;DHT22;53624;0.000;0.000;2022-12-29T10:59:41;22.20;83.80
66710;DHT22;53624;0.000;0.000;2022-12-29T11:02:23;22.30;83.80
66710;DHT22;53624;0.000;0.000;2022-12-29T11:04:55;22.50;84.50
66710;DHT22;53624;0.000;0.000;2022-12-29T11:07:23;22.70;84.90
66710;DHT22;53624;0.000;0.000;2022-12-29T11:09:51;22.80;84.80
66710;DHT22;53624;0.000;0.000;2022-12-29T11:12:22;22.90;84.20
66710;DHT22;53624;0.000;0.000;2022-12-29T11:15:13;22.90;83.60
66710;DHT22;53624;0.000;0.000;2022-12-29T11:17:44;23.00;83.80
66710;DHT22;53624;0.000;0.000;2022-12-29T11:20:29;23.10;83.40
66710;DHT22;53624;0.000;0.000;2022-12-29T11:22:56;23.10;83.50
66710;DHT22;53624;0.000;0.000;2022-12-29T11:25:24;23.20;83.40
66710;DHT22;53624;0.000;0.000;2022-12-29T11:27:57;23.30;83.30
66710;DHT22;53624;0.000;0.000;2022-12-29T11:30:25;23.40;83.50
66710;DHT22;53624;0.000;0.000;2022-12-29T11:32:54;23.40;83.70
66710;DHT22;53624;0.000;0.000;2022-12-29T11:35:29;23.40;83.60
66710;DHT22;53624;0.000;0.000;2022-12-29T11:37:57;23.30;83.90
66710;DHT22;53624;0.000;0.000;2022-12-29T11:40:25;23.20;83.90
66710;DHT22;53624;0.000;0.000;2022-12-29T11:42:54;23.20;84.40
66710;DHT22;53624;0.000;0.000;2022-12-29T11:45:24;23.30;84.40
66710;DHT22;53624;0.000;0.000;2022-12-29T11:47:52;23.30;84.80
66710;DHT22;53624;0.000;0.000;2022-12-29T11:50:21;23.50;85.00
66710;DHT22;53624;0.000;0.000;2022-12-29T11:52:49;23.50;85.10
66710;DHT22;53624;0.000;0.000;2022-12-29T11:55:19;23.60;85.70
66710;DHT22;53624;0.000;0.000;2022-12-29T11:57:47;23.50;85.50
66710;DHT22;53624;0.000;0.000;2022-12-29T12:00:19;23.50;85.60
66710;DHT22;53624;0.000;0.000;2022-12-29T12:09:10;23.40;86.00
66710;DHT22;53624;0.000;0.000;2022-12-29T12:11:42;23.40;87.20
66710;DHT22;53624;0.000;0.000;2022-12-29T12:14:12;23.40;87.50
66710;DHT22;53624;0.000;0.000;2022-12-29T12:17:05;23.40;87.80
66710;DHT22;53624;0.000;0.000;2022-12-29T12:19:34;23.30;88.50
66710;DHT22;53624;0.000;0.000;2022-12-29T12:22:07;23.30;88.00
66710;DHT22;53624;0.000;0.000;2022-12-29T12:24:39;23.30;88.80
66710;DHT22;53624;0.000;0.000;2022-12-29T12:27:11;23.30;88.90
66710;DHT22;53624;0.000;0.000;2022-12-29T12:29:41;23.50;90.10
66710;DHT22;53624;0.000;0.000;2022-12-29T12:32:12;23.60;91.60
66710;DHT22;53624;0.000;0.000;2022-12-29T12:34:41;23.50;90.70
66710;DHT22;53624;0.000;0.000;2022-12-29T12:37:14;23.50;91.40
66710;DHT22;53624;0.000;0.000;2022-12-29T12:39:49;23.40;91.00
66710;DHT22;53624;0.000;0.000;2022-12-29T12:42:27;23.30;91.20
66710;DHT22;53624;0.000;0.000;2022-12-29T12:45:04;23.30;91.10
66710;DHT22;53624;0.000;0.000;2022-12-29T12:47:42;23.20;91.50
66710;DHT22;53624;0.000;0.000;2022-12-29T12:50:22;23.00;91.10
66710;DHT22;53624;0.000;0.000;2022-12-29T12:52:59;22.80;91.00
66710;DHT22;53624;0.000;0.000;2022-12-29T12:55:34;22.70;91.40
66710;DHT22;53624;0.000;0.000;2022-12-29T12:58:07;22.60;91.00
66710;DHT22;53624;0.000;0.000;2022-12-29T13:00:40;22.60;91.70
66710;DHT22;53624;0.000;0.000;2022-12-29T13:03:12;22.40;91.60
66710;DHT22;53624;0.000;0.000;2022-12-29T13:05:47;22.50;92.10
66710;DHT22;53624;0.000;0.000;2022-12-29T13:08:22;22.40;92.20
66710;DHT22;53624;0.000;0.000;2022-12-29T13:10:55;22.40;92.00
66710;DHT22;53624;0.000;0.000;2022-12-29T13:16:28;22.20;92.30
66710;DHT22;53624;0.000;0.000;2022-12-29T13:18:58;22.10;92.20
66710;DHT22;53624;0.000;0.000;2022-12-29T13:21:34;22.00;92.40
66710;DHT22;53624;0.000;0.000;2022-12-29T13:24:07;21.90;92.20
66710;DHT22;53624;0.000;0.000;2022-12-29T13:26:42;21.80;92.10
66710;DHT22;53624;0.000;0.000;2022-12-29T13:29:13;21.70;92.20
66710;DHT22;53624;0.000;0.000;2022-12-29T13:31:44;21.60;92.00
66710;DHT22;53624;0.000;0.000;2022-12-29T13:34:15;21.60;92.30
66710;DHT22;53624;0.000;0.000;2022-12-29T13:36:47;21.70;92.60
66710;DHT22;53624;0.000;0.000;2022-12-29T13:39:25;21.90;92.80
66710;DHT22;53624;0.000;0.000;2022-12-29T13:42:05;21.90;92.60
66710;DHT22;53624;0.000;0.000;2022-12-29T13:44:34;21.90;92.60
66710;DHT22;53624;0.000;0.000;2022-12-29T13:47:02;21.90;92.90
66710;DHT22;53624;0.000;0.000;2022-12-29T13:49:33;21.80;92.80
66710;DHT22;53624;0.000;0.000;2022-12-29T13:52:04;21.70;92.50
66710;DHT22;53624;0.000;0.000;2022-12-29T13:54:35;21.60;92.70
66710;DHT22;53624;0.000;0.000;2022-12-29T13:57:10;21.50;92.70
66710;DHT22;53624;0.000;0.000;2022-12-29T13:59:42;21.50;92.80
66710;DHT22;53624;0.000;0.000;2022-12-29T14:02:15;21.50;93.00
66710;DHT22;53624;0.000;0.000;2022-12-29T14:05:00;21.40;93.40
66710;DHT22;53624;0.000;0.000;2022-12-29T14:07:28;21.40;93.10
66710;DHT22;53624;0.000;0.000;2022-12-29T14:09:56;21.30;93.00
66710;DHT22;53624;0.000;0.000;2022-12-29T14:12:32;21.20;92.90
66710;DHT22;53624;0.000;0.000;2022-12-29T14:15:04;21.20;92.90
66710;DHT22;53624;0.000;0.000;2022-12-29T14:17:42;21.10;92.90
66710;DHT22;53624;0.000;0.000;2022-12-29T14:20:16;21.10;93.10
66710;DHT22;53624;0.000;0.000;2022-12-29T14:22:55;21.00;93.10
66710;DHT22;53624;0.000;0.000;2022-12-29T14:28:16;21.00;93.10
66710;DHT22;53624;0.000;0.000;2022-12-29T14:30:51;21.00;93.30
66710;DHT22;53624;0.000;0.000;2022-12-29T14:33:19;20.90;93.60
66710;DHT22;53624;0.000;0.000;2022-12-29T14:35:48;20.90;93.60
66710;DHT22;53624;0.000;0.000;2022-12-29T14:38:19;20.80;93.60
66710;DHT22;53624;0.000;0.000;2022-12-29T14:40:47;20.70;93.90
66710;DHT22;53624;0.000;0.000;2022-12-29T14:43:20;20.70;94.00
66710;DHT22;53624;0.000;0.000;2022-12-29T14:45:58;20.70;94.00
66710;DHT22;53624;0.000;0.000;2022-12-29T14:48:30;20.70;94.00
66710;DHT22;53624;0.000;0.000;2022-12-29T14:51:00;20.70;93.90
66710;DHT22;53624;0.000;0.000;2022-12-29T14:53:41;20.70;93.90
66710;DHT22;53624;0.000;0.000;2022-12-29T14:56:10;20.60;94.10
66710;DHT22;53624;0.000;0.000;2022-12-29T14:58:41;20.60;94.30
66710;DHT22;53624;0.000;0.000;2022-12-29T15:01:17;20.50;94.30
66710;DHT22;53624;0.000;0.000;2022-12-29T15:03:45;20.50;94.50
66710;DHT22;53624;0.000;0.000;2022-12-29T15:06:13;20.70;94.50
66710;DHT22;53624;0.000;0.000;2022-12-29T15:08:49;21.00;94.40
66710;DHT22;53624;0.000;0.000;2022-12-29T15:11:18;21.20;93.90
66710;DHT22;53624;0.000;0.000;2022-12-29T15:13:48;21.30;93.60
66710;DHT22;53624;0.000;0.000;2022-12-29T15:16:23;21.50;93.50
66710;DHT22;53624;0.000;0.000;2022-12-29T15:18:51;21.50;93.30
66710;DHT22;53624;0.000;0.000;2022-12-29T15:21:20;21.60;93.10
66710;DHT22;53624;0.000;0.000;2022-12-29T15:23:48;21.70;92.90
66710;DHT22;53624;0.000;0.000;2022-12-29T15:26:16;21.80;92.70
66710;DHT22;53624;0.000;0.000;2022-12-29T15:28:50;21.60;92.40
66710;DHT22;53624;0.000;0.000;2022-12-29T15:31:18;21.50;92.60
66710;DHT22;53624;0.000;0.000;2022-12-29T15:33:46;21.30;92.70
66710;DHT22;53624;0.000;0.000;2022-12-29T15:36:17;21.00;93.00
66710;DHT22;53624;0.000;0.000;2022-12-29T15:38:46;20.90;93.20
66710;DHT22;53624;0.000;0.000;2022-12-29T15:41:19;20.70;93.40
66710;DHT22;53624;0.000;0.000;2022-12-29T15:43:52;20.60;93.50
66710;DHT22;53624;0.000;0.000;2022-12-29T15:46:22;20.60;93.70
66710;DHT22;53624;0.000;0.000;2022-12-29T15:48:49;20.40;93.80
66710;DHT22;53624;0.000;0.000;2022-12-29T15:51:18;20.30;93.80
66710;DHT22;53624;0.000;0.000;2022-12-29T15:53:47;20.20;93.40
66710;DHT22;53624;0.000;0.000;2022-12-29T15:56:15;20.10;93.30
66710;DHT22;53624;0.000;0.000;2022-12-29T15:58:43;20.20;93.20
66710;DHT22;53624;0.000;0.000;2022-12-29T16:01:18;20.20;93.10
66710;DHT22;53624;0.000;0.000;2022-12-29T16:03:46;20.30;93.10
66710;DHT22;53624;0.000;0.000;2022-12-29T16:06:25;20.30;93.10
66710;DHT22;53624;0.000;0.000;2022-12-29T16:08:55;20.30;93.20
66710;DHT22;53624;0.000;0.000;2022-12-29T16:11:24;20.40;93.30
66710;DHT22;53624;0.000;0.000;2022-12-29T16:13:53;20.30;93.30
66710;DHT22;53624;0.000;0.000;2022-12-29T16:16:25;20.30;93.20
66710;DHT22;53624;0.000;0.000;2022-12-29T16:18:54;20.30;93.10
66710;DHT22;53624;0.000;0.000;2022-12-29T16:21:23;20.30;93.10
66710;DHT22;53624;0.000;0.000;2022-12-29T16:23:52;20.40;92.90